createdAt,value
2017-08-02T00:01:31.508Z,5.70
2017-08-02T00:03:57.875Z,6.43
2017-08-02T00:06:24.217Z,5.30
2017-08-02T00:08:50.518Z,5.45
2017-08-02T00:11:16.861Z,8.57
2017-08-02T00:13:43.163Z,5.07
2017-08-02T00:16:09.507Z,6.43
2017-08-02T00:18:35.828Z,5.05
2017-08-02T00:21:02.135Z,4.90
2017-08-02T00:23:28.478Z,4.80
2017-08-02T00:25:54.827Z,4.65
2017-08-02T00:28:21.148Z,5.28
2017-08-02T00:30:47.499Z,5.82
2017-08-02T00:33:13.845Z,5.85
2017-08-02T00:35:40.915Z,7.40
2017-08-02T00:38:07.281Z,6.60
2017-08-02T00:40:33.619Z,7.20
2017-08-02T00:42:59.967Z,6.50
2017-08-02T00:45:26.299Z,8.57
2017-08-02T00:47:52.610Z,6.95
2017-08-02T00:50:18.931Z,5.50
2017-08-02T00:52:45.243Z,6.07
2017-08-02T00:55:12.325Z,5.50
2017-08-02T00:57:38.615Z,5.60
2017-08-02T01:00:04.924Z,5.00
2017-08-02T01:02:31.312Z,5.30
2017-08-02T01:04:57.651Z,5.25
2017-08-02T01:07:23.984Z,4.87
2017-08-02T01:09:50.320Z,5.10
2017-08-02T01:12:16.660Z,5.85
2017-08-02T01:14:42.984Z,6.28
2017-08-02T01:17:09.327Z,5.00
2017-08-02T01:19:35.658Z,5.18
2017-08-02T01:22:01.960Z,4.90
2017-08-02T01:24:28.293Z,7.25
2017-08-02T01:26:54.773Z,4.68
2017-08-02T01:29:21.123Z,5.05
2017-08-02T01:31:47.439Z,5.28
2017-08-02T01:34:13.780Z,4.30
2017-08-02T01:36:40.147Z,5.25
2017-08-02T01:39:06.473Z,5.25
2017-08-02T01:41:32.816Z,3.72
2017-08-02T01:43:59.134Z,4.35
2017-08-02T01:46:25.472Z,4.40
2017-08-02T01:48:51.803Z,4.35
2017-08-02T01:51:18.153Z,6.00
2017-08-02T01:53:45.285Z,4.35
2017-08-02T01:56:11.608Z,4.00
2017-08-02T01:58:37.947Z,5.93
2017-08-02T02:01:05.087Z,4.57
2017-08-02T02:03:32.848Z,3.90
2017-08-02T02:06:01.035Z,3.90
2017-08-02T02:08:28.303Z,4.10
2017-08-02T02:10:54.604Z,4.75
2017-08-02T02:13:20.920Z,4.18
2017-08-02T02:15:47.297Z,3.90
2017-08-02T02:18:13.664Z,4.60
2017-08-02T02:20:39.991Z,4.90
2017-08-02T02:23:06.284Z,4.30
2017-08-02T02:25:32.588Z,8.02
2017-08-02T02:27:58.936Z,4.10
2017-08-02T02:30:25.256Z,4.20
2017-08-02T02:32:51.544Z,4.70
2017-08-02T02:35:17.889Z,4.57
2017-08-02T02:37:44.235Z,4.72
2017-08-02T02:40:10.527Z,4.40
2017-08-02T02:42:36.832Z,5.07
2017-08-02T02:45:03.927Z,4.53
2017-08-02T02:47:30.214Z,5.07
2017-08-02T02:49:56.516Z,5.07
2017-08-02T02:52:22.835Z,4.97
2017-08-02T02:54:49.420Z,4.93
2017-08-02T02:57:15.729Z,4.80
2017-08-02T02:59:42.036Z,4.45
2017-08-02T03:02:08.384Z,5.40
2017-08-02T03:04:34.676Z,5.30
2017-08-02T03:07:01.006Z,6.90
2017-08-02T03:09:28.312Z,5.20
2017-08-02T03:11:55.360Z,5.57
2017-08-02T03:14:22.395Z,4.90
2017-08-02T03:16:49.463Z,4.62
2017-08-02T03:19:15.767Z,5.00
2017-08-02T03:21:42.055Z,5.10
2017-08-02T03:24:08.384Z,4.70
2017-08-02T03:26:34.678Z,5.47
2017-08-02T03:29:01.717Z,4.50
2017-08-02T03:31:28.120Z,4.95
2017-08-02T03:33:54.436Z,4.62
2017-08-02T03:36:20.835Z,5.15
2017-08-02T03:38:47.190Z,5.60
2017-08-02T03:41:13.483Z,5.50
2017-08-02T03:43:39.852Z,4.60
2017-08-02T03:46:06.161Z,7.32
2017-08-02T03:48:32.475Z,4.60
2017-08-02T03:50:58.800Z,4.95
2017-08-02T03:53:25.103Z,4.45
2017-08-02T03:55:51.423Z,4.30
2017-08-02T03:58:17.749Z,4.15
2017-08-02T04:00:44.067Z,4.82
2017-08-02T04:03:10.385Z,6.22
2017-08-02T04:05:36.699Z,4.80
2017-08-02T04:08:03.043Z,4.43
2017-08-02T04:10:29.347Z,6.10
2017-08-02T04:12:55.667Z,5.50
2017-08-02T04:15:21.966Z,4.87
2017-08-02T04:17:49.115Z,5.20
2017-08-02T04:20:15.412Z,5.32
2017-08-02T04:22:41.727Z,4.50
2017-08-02T04:25:08.042Z,4.82
2017-08-02T04:27:34.340Z,5.18
2017-08-02T04:30:01.368Z,5.65
2017-08-02T04:32:27.679Z,4.65
2017-08-02T04:34:53.970Z,6.20
2017-08-02T04:37:20.336Z,7.20
2017-08-02T04:39:46.627Z,5.30
2017-08-02T04:42:12.927Z,5.50
2017-08-02T04:44:40.007Z,4.70
2017-08-02T04:47:06.324Z,5.82
2017-08-02T04:49:32.639Z,6.30
2017-08-02T04:51:59.013Z,5.07
2017-08-02T04:54:25.395Z,4.68
2017-08-02T04:56:51.683Z,4.45
2017-08-02T04:59:17.971Z,4.43
2017-08-02T05:01:45.028Z,4.30
2017-08-02T05:04:11.379Z,5.60
2017-08-02T05:06:37.705Z,3.67
2017-08-02T05:09:04.045Z,3.90
2017-08-02T05:11:30.340Z,3.70
2017-08-02T05:13:57.395Z,3.90
2017-08-02T05:16:23.739Z,5.15
2017-08-02T05:18:50.084Z,11.73
2017-08-02T05:21:16.391Z,3.53
2017-08-02T05:23:42.757Z,4.30
2017-08-02T05:26:09.076Z,3.67
2017-08-02T05:28:35.411Z,4.78
2017-08-02T05:31:01.746Z,3.47
2017-08-02T05:33:28.060Z,3.37
2017-08-02T05:35:54.343Z,3.20
2017-08-02T05:38:21.411Z,6.10
2017-08-02T05:40:47.740Z,4.30
2017-08-02T05:43:14.051Z,5.07
2017-08-02T05:45:40.371Z,3.70
2017-08-02T05:48:06.784Z,3.55
2017-08-02T05:50:33.104Z,4.30
2017-08-02T05:52:59.417Z,3.10
2017-08-02T05:55:25.768Z,5.10
2017-08-02T05:57:52.102Z,3.45
2017-08-02T06:00:18.416Z,3.83
2017-08-02T06:02:44.752Z,5.40
2017-08-02T06:05:11.135Z,3.65
2017-08-02T06:07:38.180Z,3.50
2017-08-02T06:10:05.213Z,3.60
2017-08-02T06:12:32.282Z,4.30
2017-08-02T06:14:58.607Z,3.45
2017-08-02T06:17:24.931Z,3.95
2017-08-02T06:19:52.010Z,4.55
2017-08-02T06:22:18.399Z,3.50
2017-08-02T06:24:44.804Z,5.25
2017-08-02T06:27:11.225Z,4.57
2017-08-02T06:29:37.531Z,3.80
2017-08-02T06:32:03.843Z,3.60
2017-08-02T06:34:30.149Z,3.92
2017-08-02T06:36:57.211Z,3.60
2017-08-02T06:39:23.552Z,5.18
2017-08-02T06:41:49.857Z,5.22
2017-08-02T06:44:17.230Z,3.72
2017-08-02T06:46:43.552Z,4.45
2017-08-02T06:49:09.952Z,3.65
2017-08-02T06:51:36.264Z,4.05
2017-08-02T06:54:02.575Z,4.97
2017-08-02T06:56:28.863Z,4.82
2017-08-02T06:58:55.911Z,5.55
2017-08-02T07:01:22.983Z,5.05
2017-08-02T07:03:49.347Z,4.00
2017-08-02T07:06:15.647Z,3.85
2017-08-02T07:08:41.971Z,5.80
2017-08-02T07:11:08.319Z,4.28
2017-08-02T07:13:34.643Z,5.20
2017-08-02T07:16:00.983Z,5.35
2017-08-02T07:18:27.299Z,4.62
2017-08-02T07:20:53.631Z,3.50
2017-08-02T07:23:19.953Z,5.20
2017-08-02T07:25:46.259Z,3.85
2017-08-02T07:28:13.292Z,3.35
2017-08-02T07:30:40.392Z,3.37
2017-08-02T07:33:06.702Z,4.60
2017-08-02T07:35:33.003Z,4.87
2017-08-02T07:37:59.316Z,5.45
2017-08-02T07:40:25.619Z,3.62
2017-08-02T07:42:51.954Z,3.42
2017-08-02T07:45:18.258Z,3.58
2017-08-02T07:47:44.547Z,4.15
2017-08-02T07:50:10.879Z,4.43
2017-08-02T07:52:37.932Z,3.12
2017-08-02T07:55:05.027Z,4.07
2017-08-02T07:57:31.372Z,3.85
2017-08-02T07:59:57.666Z,2.78
2017-08-02T08:02:23.975Z,5.07
2017-08-02T08:04:51.064Z,6.78
2017-08-02T08:07:17.364Z,4.32
2017-08-02T08:09:43.708Z,3.10
2017-08-02T08:12:10.027Z,3.70
2017-08-02T08:14:36.332Z,3.10
2017-08-02T08:17:03.401Z,3.83
2017-08-02T08:19:29.680Z,5.05
2017-08-02T08:21:55.999Z,3.75
2017-08-02T08:24:22.328Z,3.12
2017-08-02T08:26:48.715Z,3.42
2017-08-02T08:29:15.068Z,3.78
2017-08-02T08:31:41.396Z,3.55
2017-08-02T08:34:07.735Z,3.95
2017-08-02T08:36:34.056Z,3.78
2017-08-02T08:39:00.372Z,4.97
2017-08-02T08:41:26.679Z,6.20
2017-08-02T08:43:53.847Z,4.95
2017-08-02T08:46:20.886Z,4.95
2017-08-02T08:48:47.207Z,4.78
2017-08-02T08:51:13.560Z,4.87
2017-08-02T08:53:39.861Z,4.72
2017-08-02T08:56:06.932Z,4.90
2017-08-02T08:58:33.278Z,5.60
2017-08-02T09:00:59.621Z,5.43
2017-08-02T09:03:25.927Z,6.85
2017-08-02T09:05:52.239Z,5.45
2017-08-02T09:08:18.559Z,5.03
2017-08-02T09:10:45.615Z,5.60
2017-08-02T09:13:12.675Z,5.28
2017-08-02T09:15:39.002Z,7.03
2017-08-02T09:18:06.099Z,8.50
2017-08-02T09:20:32.404Z,5.82
2017-08-02T09:22:58.688Z,6.20
2017-08-02T09:25:25.775Z,5.90
2017-08-02T09:27:52.191Z,7.43
2017-08-02T09:30:18.503Z,6.00
2017-08-02T09:32:44.840Z,6.25
2017-08-02T09:35:11.879Z,5.75
2017-08-02T09:37:38.953Z,9.27
2017-08-02T09:40:05.303Z,8.52
2017-08-02T09:42:32.148Z,5.28
2017-08-02T09:44:58.483Z,7.50
2017-08-02T09:47:24.820Z,5.80
2017-08-02T09:49:51.138Z,6.28
2017-08-02T09:52:17.654Z,5.00
2017-08-02T09:54:44.064Z,5.80
2017-08-02T09:57:11.103Z,6.53
2017-08-02T09:59:38.149Z,5.40
2017-08-02T10:02:05.233Z,6.43
2017-08-02T10:04:31.573Z,6.57
2017-08-02T10:06:57.889Z,6.28
2017-08-02T10:09:24.211Z,7.22
2017-08-02T10:11:50.516Z,6.40
2017-08-02T10:14:17.592Z,5.18
2017-08-02T10:16:43.943Z,7.20
2017-08-02T10:19:10.240Z,9.20
2017-08-02T10:21:36.560Z,7.62
2017-08-02T10:24:02.997Z,5.65
2017-08-02T10:26:29.303Z,5.97
2017-08-02T10:28:55.607Z,6.07
2017-08-02T10:31:21.952Z,5.93
2017-08-02T10:33:48.294Z,6.15
2017-08-02T10:36:15.351Z,6.85
2017-08-02T10:38:41.689Z,6.78
2017-08-02T10:41:08.734Z,6.68
2017-08-02T10:43:35.066Z,7.70
2017-08-02T10:46:02.112Z,6.93
2017-08-02T10:48:28.476Z,5.68
2017-08-02T10:50:54.786Z,7.75
2017-08-02T10:53:21.075Z,5.65
2017-08-02T10:55:48.167Z,6.07
2017-08-02T10:58:14.478Z,8.00
2017-08-02T11:00:41.523Z,7.10
2017-08-02T11:03:07.878Z,5.87
2017-08-02T11:05:34.224Z,7.40
2017-08-02T11:08:00.535Z,6.62
2017-08-02T11:10:26.879Z,12.27
2017-08-02T11:12:53.191Z,5.90
2017-08-02T11:15:19.532Z,5.80
2017-08-02T11:17:45.887Z,5.57
2017-08-02T11:20:12.232Z,10.32
2017-08-02T11:22:38.627Z,6.97
2017-08-02T11:25:04.977Z,5.45
2017-08-02T11:27:31.303Z,5.18
2017-08-02T11:29:57.603Z,7.75
2017-08-02T11:32:23.907Z,6.30
2017-08-02T11:34:50.983Z,5.10
2017-08-02T11:37:17.343Z,6.78
2017-08-02T11:39:43.658Z,8.65
2017-08-02T11:42:10.015Z,8.38
2017-08-02T11:44:36.307Z,5.82
2017-08-02T11:47:02.656Z,8.55
2017-08-02T11:49:29.015Z,6.85
2017-08-02T11:51:55.311Z,9.68
2017-08-02T11:54:21.631Z,5.55
2017-08-02T11:56:47.951Z,6.05
2017-08-02T11:59:14.339Z,9.35
2017-08-02T12:01:40.702Z,9.30
2017-08-02T12:04:07.020Z,9.25
2017-08-02T12:06:34.086Z,7.12
2017-08-02T12:09:00.466Z,6.35
2017-08-02T12:11:26.755Z,7.97
2017-08-02T12:13:53.085Z,6.20
2017-08-02T12:16:19.399Z,8.77
2017-08-02T12:18:45.729Z,8.80
2017-08-02T12:21:12.194Z,7.45
2017-08-02T12:23:38.600Z,6.55
2017-08-02T12:26:05.000Z,12.57
2017-08-02T12:28:31.488Z,9.20
2017-08-02T12:30:58.705Z,10.05
2017-08-02T12:33:25.133Z,6.78
2017-08-02T12:35:51.611Z,7.07
2017-08-02T12:38:18.116Z,7.95
2017-08-02T12:40:44.508Z,5.78
2017-08-02T12:43:11.038Z,9.43
2017-08-02T12:45:38.173Z,6.60
2017-08-02T12:48:04.582Z,7.00
2017-08-02T12:50:30.998Z,8.27
2017-08-02T12:52:57.459Z,10.13
2017-08-02T12:55:23.889Z,9.45
2017-08-02T12:57:50.317Z,10.32
2017-08-02T13:00:16.840Z,7.10
2017-08-02T13:02:43.168Z,5.47
2017-08-02T13:05:09.468Z,5.87
2017-08-02T13:07:36.555Z,7.40
2017-08-02T13:10:02.867Z,8.52
2017-08-02T13:12:29.159Z,5.97
2017-08-02T13:14:56.236Z,6.07
2017-08-02T13:17:22.584Z,5.65
2017-08-02T13:19:48.909Z,10.70
2017-08-02T13:22:15.219Z,11.00
2017-08-02T13:24:42.427Z,6.90
2017-08-02T13:27:08.716Z,6.22
2017-08-02T13:29:35.014Z,6.85
2017-08-02T13:32:01.358Z,7.85
2017-08-02T13:34:27.652Z,7.30
2017-08-02T13:36:53.953Z,8.68
2017-08-02T13:39:20.600Z,6.70
2017-08-02T13:41:46.899Z,7.43
2017-08-02T13:44:13.204Z,11.07
2017-08-02T13:46:40.257Z,7.35
2017-08-02T13:49:06.572Z,8.10
2017-08-02T13:51:33.647Z,8.75
2017-08-02T13:53:59.987Z,6.57
2017-08-02T13:56:26.284Z,7.30
2017-08-02T13:58:53.322Z,8.18
2017-08-02T14:01:19.654Z,8.50
2017-08-02T14:03:46.700Z,8.20
2017-08-02T14:06:13.085Z,6.80
2017-08-02T14:08:39.392Z,9.63
2017-08-02T14:11:05.688Z,6.47
2017-08-02T14:13:32.011Z,6.20
2017-08-02T14:15:58.335Z,6.68
2017-08-02T14:18:24.625Z,7.12
2017-08-02T14:20:50.944Z,6.45
2017-08-02T14:23:17.295Z,8.82
2017-08-02T14:25:43.619Z,7.90
2017-08-02T14:28:09.975Z,6.97
2017-08-02T14:30:36.296Z,6.85
2017-08-02T14:33:02.628Z,5.10
2017-08-02T14:35:28.967Z,7.93
2017-08-02T14:37:55.259Z,6.05
2017-08-02T14:40:21.562Z,6.62
2017-08-02T14:42:48.638Z,4.90
2017-08-02T14:45:14.939Z,5.45
2017-08-02T14:47:41.975Z,5.65
2017-08-02T14:50:08.375Z,8.60
2017-08-02T14:52:34.675Z,8.68
2017-08-02T14:55:00.987Z,7.60
2017-08-02T14:57:27.303Z,7.55
2017-08-02T14:59:54.375Z,6.25
2017-08-02T15:02:20.685Z,6.00
2017-08-02T15:04:47.031Z,7.82
2017-08-02T15:07:13.375Z,10.52
2017-08-02T15:09:39.681Z,5.18
2017-08-02T15:12:05.995Z,11.15
2017-08-02T15:14:33.060Z,8.95
2017-08-02T15:16:59.371Z,7.15
2017-08-02T15:19:26.453Z,7.10
2017-08-02T15:21:52.793Z,7.68
2017-08-02T15:24:19.134Z,6.28
2017-08-02T15:26:45.472Z,7.70
2017-08-02T15:29:11.771Z,6.50
2017-08-02T15:31:38.069Z,8.77
2017-08-02T15:34:05.127Z,6.20
2017-08-02T15:36:31.473Z,7.95
2017-08-02T15:38:57.825Z,6.85
2017-08-02T15:41:24.159Z,6.93
2017-08-02T15:43:50.524Z,8.40
2017-08-02T15:46:17.563Z,5.62
2017-08-02T15:48:43.932Z,6.12
2017-08-02T15:51:10.242Z,12.65
2017-08-02T15:53:37.322Z,6.85
2017-08-02T15:56:03.656Z,6.62
2017-08-02T15:58:29.958Z,8.27
2017-08-02T16:00:56.280Z,6.45
2017-08-02T16:03:22.643Z,6.90
2017-08-02T16:05:48.952Z,7.15
2017-08-02T16:08:15.267Z,6.10
2017-08-02T16:10:42.338Z,8.10
2017-08-02T16:13:08.640Z,10.00
2017-08-02T16:15:35.023Z,7.93
2017-08-02T16:18:01.327Z,7.25
2017-08-02T16:20:27.616Z,6.12
2017-08-02T16:22:53.947Z,5.82
2017-08-02T16:25:20.256Z,6.30
2017-08-02T16:27:46.597Z,8.00
2017-08-02T16:30:12.930Z,7.07
2017-08-02T16:32:39.236Z,7.53
2017-08-02T16:35:05.555Z,7.60
2017-08-02T16:37:31.884Z,8.38
2017-08-02T16:39:58.232Z,13.07
2017-08-02T16:42:24.569Z,8.15
2017-08-02T16:44:50.903Z,5.80
2017-08-02T16:47:17.218Z,11.57
2017-08-02T16:49:43.707Z,6.93
2017-08-02T16:52:10.013Z,8.50
2017-08-02T16:54:37.064Z,7.20
2017-08-02T16:57:04.161Z,8.45
2017-08-02T16:59:30.467Z,7.43
2017-08-02T17:01:56.785Z,7.68
2017-08-02T17:04:23.899Z,7.05
2017-08-02T17:06:50.219Z,9.00
2017-08-02T17:09:16.572Z,8.80
2017-08-02T17:11:43.684Z,5.45
2017-08-02T17:14:09.989Z,7.60
2017-08-02T17:16:36.289Z,7.75
2017-08-02T17:19:03.376Z,6.18
2017-08-02T17:21:29.687Z,6.43
2017-08-02T17:23:56.028Z,9.32
2017-08-02T17:26:22.355Z,6.32
2017-08-02T17:28:48.655Z,5.90
2017-08-02T17:31:14.979Z,8.70
2017-08-02T17:33:42.052Z,9.85
2017-08-02T17:36:08.399Z,7.00
2017-08-02T17:38:34.716Z,7.40
2017-08-02T17:41:01.063Z,7.57
2017-08-02T17:43:27.456Z,7.80
2017-08-02T17:45:54.585Z,8.88
2017-08-02T17:48:20.910Z,7.43
2017-08-02T17:50:47.252Z,12.32
2017-08-02T17:53:13.592Z,8.10
2017-08-02T17:55:39.901Z,7.97
2017-08-02T17:58:06.275Z,5.70
2017-08-02T18:00:32.629Z,6.47
2017-08-02T18:02:58.964Z,6.07
2017-08-02T18:05:25.319Z,7.90
2017-08-02T18:07:51.664Z,7.15
2017-08-02T18:10:18.799Z,8.48
2017-08-02T18:12:45.115Z,9.00
2017-08-02T18:15:11.458Z,10.32
2017-08-02T18:17:37.769Z,8.32
2017-08-02T18:20:04.127Z,11.60
2017-08-02T18:22:31.193Z,6.53
2017-08-02T18:24:57.573Z,8.68
2017-08-02T18:27:23.891Z,7.15
2017-08-02T18:29:50.219Z,10.10
2017-08-02T18:32:16.549Z,8.38
2017-08-02T18:34:42.896Z,7.70
2017-08-02T18:37:09.246Z,7.75
2017-08-02T18:39:35.714Z,8.57
2017-08-02T18:42:02.032Z,7.75
2017-08-02T18:44:29.180Z,8.60
2017-08-02T18:46:56.253Z,9.27
2017-08-02T18:49:22.595Z,8.30
2017-08-02T18:51:48.936Z,9.93
2017-08-02T18:54:15.235Z,9.25
2017-08-02T18:56:41.584Z,8.05
2017-08-02T18:59:07.917Z,9.80
2017-08-02T19:01:34.294Z,8.80
2017-08-02T19:04:00.729Z,12.52
2017-08-02T19:06:27.159Z,8.85
2017-08-02T19:08:54.287Z,8.30
2017-08-02T19:11:20.878Z,10.60
2017-08-02T19:13:47.261Z,10.10
2017-08-02T19:16:13.618Z,8.55
2017-08-02T19:18:41.558Z,7.40
2017-08-02T19:21:07.884Z,8.40
2017-08-02T19:23:34.267Z,16.98
2017-08-02T19:26:00.785Z,10.02
2017-08-02T19:28:27.183Z,11.02
2017-08-02T19:30:53.714Z,10.38
2017-08-02T19:33:20.282Z,11.90
2017-08-02T19:35:46.768Z,8.63
2017-08-02T19:38:13.660Z,10.70
2017-08-02T19:40:40.133Z,8.73
2017-08-02T19:43:06.637Z,8.80
2017-08-02T19:45:33.184Z,11.18
2017-08-02T19:47:59.644Z,8.18
2017-08-02T19:50:26.201Z,8.73
2017-08-02T19:52:52.664Z,13.50
2017-08-02T19:55:19.169Z,8.43
2017-08-02T19:57:45.547Z,9.27
2017-08-02T20:00:12.682Z,8.65
2017-08-02T20:02:39.243Z,13.60
2017-08-02T20:05:05.774Z,7.15
2017-08-02T20:07:33.151Z,9.70
2017-08-02T20:09:59.468Z,13.07
2017-08-02T20:12:25.907Z,8.45
2017-08-02T20:14:52.261Z,8.70
2017-08-02T20:17:18.575Z,8.02
2017-08-02T20:19:45.072Z,8.25
2017-08-02T20:22:11.597Z,9.63
2017-08-02T20:24:38.032Z,8.75
2017-08-02T20:27:04.406Z,8.10
2017-08-02T20:29:30.758Z,13.45
2017-08-02T20:31:57.155Z,12.60
2017-08-02T20:34:23.492Z,8.65
2017-08-02T20:36:49.806Z,8.90
2017-08-02T20:39:16.157Z,8.30
2017-08-02T20:41:42.471Z,10.82
2017-08-02T20:44:08.791Z,8.80
2017-08-02T20:46:35.143Z,11.38
2017-08-02T20:49:01.450Z,9.75
2017-08-02T20:51:27.793Z,8.25
2017-08-02T20:53:54.132Z,9.68
2017-08-02T20:56:20.453Z,10.32
2017-08-02T20:58:46.769Z,9.80
2017-08-02T21:01:13.101Z,8.95
2017-08-02T21:03:39.423Z,9.55
2017-08-02T21:06:06.173Z,10.38
2017-08-02T21:08:32.468Z,10.38
2017-08-02T21:10:58.822Z,10.15
2017-08-02T21:13:25.127Z,11.27
2017-08-02T21:15:51.477Z,10.98
2017-08-02T21:18:17.775Z,9.85
2017-08-02T21:20:44.095Z,12.15
2017-08-02T21:23:10.420Z,9.88
2017-08-02T21:25:36.731Z,11.60
2017-08-02T21:28:03.040Z,12.90
2017-08-02T21:30:29.403Z,9.75
2017-08-02T21:32:55.695Z,14.10
2017-08-02T21:35:22.047Z,14.20
2017-08-02T21:37:48.353Z,10.90
2017-08-02T21:40:14.724Z,10.35
2017-08-02T21:42:41.035Z,11.18
2017-08-02T21:45:07.367Z,11.43
2017-08-02T21:47:33.672Z,11.77
2017-08-02T21:49:59.971Z,12.00
2017-08-02T21:52:26.292Z,13.05
2017-08-02T21:54:52.589Z,14.02
2017-08-02T21:57:18.888Z,14.98
2017-08-02T21:59:45.259Z,14.60
2017-08-02T22:02:11.571Z,10.65
2017-08-02T22:04:37.904Z,12.18
2017-08-02T22:07:04.231Z,12.45
2017-08-02T22:09:30.731Z,12.37
2017-08-02T22:11:57.788Z,14.52
2017-08-02T22:14:24.099Z,11.85
2017-08-02T22:16:51.163Z,13.07
2017-08-02T22:19:17.474Z,12.93
2017-08-02T22:21:43.849Z,12.55
2017-08-02T22:24:10.155Z,12.07
2017-08-02T22:26:36.475Z,14.43
2017-08-02T22:29:03.587Z,14.77
2017-08-02T22:31:29.893Z,11.95
2017-08-02T22:33:56.215Z,12.00
2017-08-02T22:36:22.532Z,12.93
2017-08-02T22:38:48.914Z,13.25
2017-08-02T22:41:15.267Z,13.88
2017-08-02T22:43:42.340Z,16.33
2017-08-02T22:46:08.704Z,14.43
2017-08-02T22:48:35.012Z,12.57
2017-08-02T22:51:01.339Z,13.32
2017-08-02T22:53:27.648Z,11.77
2017-08-02T22:55:53.980Z,12.15
2017-08-02T22:58:20.320Z,12.18
2017-08-02T23:00:46.611Z,13.85
2017-08-02T23:03:13.696Z,12.90
2017-08-02T23:05:40.044Z,12.73
2017-08-02T23:08:06.414Z,12.68
2017-08-02T23:10:33.532Z,12.68
2017-08-02T23:12:59.836Z,11.85
2017-08-02T23:15:26.355Z,12.50
2017-08-02T23:17:52.716Z,12.50
2017-08-02T23:20:19.025Z,12.13
2017-08-02T23:22:45.343Z,14.87
2017-08-02T23:25:12.395Z,12.40
2017-08-02T23:27:38.753Z,13.70
2017-08-02T23:30:05.056Z,13.48
2017-08-02T23:32:31.403Z,13.23
2017-08-02T23:34:57.708Z,13.93
2017-08-02T23:37:24.088Z,13.23
2017-08-02T23:39:50.450Z,12.77
2017-08-02T23:42:16.756Z,12.65
2017-08-02T23:44:43.075Z,13.68
2017-08-02T23:47:09.398Z,13.05
2017-08-02T23:49:35.729Z,13.48
2017-08-02T23:52:02.076Z,14.35
2017-08-02T23:54:28.378Z,14.82
2017-08-02T23:56:54.679Z,12.90
2017-08-02T23:59:21.746Z,13.90
